Player Rankings

Find a player:
Ranking View
 
Rank Player Points Activity Connection Time sort-descending.gif Kills Deaths K:D Headshots HS:K Accuracy
1 United states[FREN] Hammer -127 -127 Points 85% 0d 06:19:31h 634 488 1.30 189 0.30 32.5%
2 United statesShemp -201 -201 Points 65% 0d 05:25:38h 384 441 0.87 56 0.15 24.8%
3 No CountryHusky 2,722 2722 Points 99% 0d 04:58:54h 424 137 3.09 188 0.44 38.2%
4 United statesAQxNyxxy 70 70 Points 82% 0d 04:52:46h 691 362 1.91 247 0.36 32.9%
5 Belgium.xXAkelaXx. 338 338 Points 64% 0d 02:57:54h 311 322 0.97 78 0.25 39.5%
6 No Country0014 = KAZ A N 318 318 Points 90% 0d 02:46:09h 130 282 0.46 31 0.24 20.2%
7 No Country(>‘o’)︻╦╤─ ҉ 87 87 Points 47% 0d 02:34:29h 36 103 0.35 4 0.11 29.2%
8 United statescaf 1,044 1044 Points 64% 0d 02:31:48h 632 158 4.00 206 0.33 36.7%
9 United statesmorphor 916 916 Points 64% 0d 02:27:27h 108 282 0.38 28 0.26 22.4%
10 United kingdom[NANI] joycey84 -49 -49 Points 17% 0d 02:22:50h 80 89 0.90 32 0.40 21.9%
11 ChileAQxRezzu 235 235 Points 64% 0d 02:16:02h 292 146 2.00 74 0.25 28.1%
12 United stateswheezyliam 83 83 Points 64% 0d 01:34:39h 66 209 0.32 19 0.29 18.9%
13 No CountryBullyhunter32 -98 -98 Points 47% 0d 01:31:14h 24 89 0.27 10 0.42 27.3%
14 ChileVictormlc83 151 151 Points 65% 0d 01:31:12h 40 98 0.41 22 0.55 22.2%
15 No CountryChofoDARKZ 770 770 Points 64% 0d 01:23:16h 117 202 0.58 40 0.34 21.5%
16 CanadaDeath_ToTheFalse 1,208 1208 Points 64% 0d 01:22:38h 144 107 1.35 22 0.15 27.1%
17 United states从美国 3 3 Points 47% 0d 01:14:26h 30 23 1.30 11 0.37 41.5%
18 United statesAmish_Ace 610 610 Points 64% 0d 01:04:27h 113 79 1.43 15 0.13 27.9%
19 BrazilSem_Noção 201 201 Points 10% 0d 01:01:19h 20 17 1.18 2 0.10 25.1%
20 United statesAceKulpster 199 199 Points 64% 0d 01:00:00h 94 124 0.76 25 0.27 36.8%
21 United states[Spoopy] Pres. Kucinich -60 -60 Points 64% 0d 00:53:15h 43 87 0.49 20 0.47 22.4%
22 No Countrysnakeeater14475 125 125 Points 64% 0d 00:47:52h 43 98 0.44 7 0.16 21.3%
23 No CountryBumbleDJ 513 513 Points 64% 0d 00:46:37h 86 63 1.37 19 0.22 29.1%
24 United statesCLEVELAND_STE4M3R 262 262 Points 64% 0d 00:42:55h 46 67 0.69 6 0.13 37.0%
25 United statesElvisDelvis 343 343 Points 10% 0d 00:39:12h 54 78 0.69 20 0.37 34.0%
26 No CountryNUTTERS 338 338 Points 10% 0d 00:38:22h 42 109 0.39 8 0.19 24.5%
27 AustraliaEmilia <3 25 25 Points 10% 0d 00:36:13h 36 97 0.37 19 0.53 20.6%
28 CanadaSnakewiz -54 -54 Points 82% 0d 00:35:28h 12 36 0.33 5 0.42 24.9%
29 No CountryThe Telekinetic Man 1,008 1008 Points 65% 0d 00:35:03h 86 31 2.77 18 0.21 39.1%
30 BrazilDecrypter1990 [<O>] 15 15 Points 64% 0d 00:34:41h 30 71 0.42 11 0.37 22.6%
31 United statesWNxSpectra™ 144 144 Points 10% 0d 00:34:00h 55 66 0.83 18 0.33 27.2%
32 United statesEarthworm Shrim 434 434 Points 82% 0d 00:31:59h 59 16 3.69 16 0.27 31.2%
33 No CountryBrimstone -61 -61 Points 64% 0d 00:30:29h 11 52 0.21 5 0.45 14.6%
34 El salvadorCristo 371 371 Points 64% 0d 00:30:10h 39 57 0.68 17 0.44 25.5%
35 No CountryDahJord 20 20 Points 64% 0d 00:27:17h 36 52 0.69 14 0.39 30.4%
36 United statesAnselan -12 -12 Points 47% 0d 00:26:07h 14 19 0.74 5 0.36 22.9%
37 United statesGoose -63 -63 Points 64% 0d 00:25:57h 2 48 0.04 1 0.50 13.3%
38 United kingdomPappa Chimp -138 -138 Points 65% 0d 00:25:56h 59 22 2.68 14 0.24 38.7%
39 No CountrySteve132 30 30 Points 47% 0d 00:25:06h 7 24 0.29 2 0.29 33.2%
40 United statesTZKK² -288 -288 Points 10% 0d 00:24:16h 20 18 1.11 8 0.40 27.8%
41 No CountryAntmeisterr -20 -20 Points 82% 0d 00:21:27h 16 26 0.62 5 0.31 28.9%
42 No Countryzebbie3199 -95 -95 Points 64% 0d 00:18:47h 9 36 0.25 3 0.33 25.6%
43 No Countrycandy -71 -71 Points 10% 0d 00:17:19h 11 45 0.24 1 0.09 13.5%
44 No CountryMudo Henrique 1 1 Points 29% 0d 00:15:55h 14 21 0.67 8 0.57 28.5%
45 CanadaA Rare Free Radical -52 -52 Points 64% 0d 00:15:49h 1 24 0.04 0 0.00 17.7%
46 United statesFeets 136 136 Points 10% 0d 00:14:57h 6 15 0.40 1 0.17 25.0%
47 No CountryRIPMHVG -23 -23 Points 64% 0d 00:14:35h 8 20 0.40 3 0.38 18.0%
48 CanadaBoxy Brown -36 -36 Points 64% 0d 00:14:33h 15 38 0.39 2 0.13 22.4%
49 No CountryTot4L Gridlock 42 42 Points 64% 0d 00:14:20h 30 34 0.88 5 0.17 34.7%
50 No Countryrenan.uefa -20 -20 Points 64% 0d 00:13:45h 9 27 0.33 5 0.56 16.5%


Only show players with or more kills.
Go to: Clan Rankings
You are currently viewing the basic version of this page, please enable JavaScript and reload the page to access full functionality.
"OMG Wesker did the moonwalk" - WNx Kalashnikov

Copyright © ges-stats.com 2009-2020. Somehow powered with cheese, HLX:CE and coffee. Front-end design by Oxi. Signatures art by PPK.
Some pages include materials from Team GoldenEye: Source. Achievement icons by the GES community.

Oh, yeah, when browing this website, you agree that cookies are used to track you. Only highest quality cookies are used, those with big chocolate chips. And they are gluten free.

- Welcome our latest player, |-<|Vash|>-| - 11,331,720 total kills -
- Live Chat - Countries - Status List - Search - Help & FAQ - Bans - Epic Quotes List -
- HLX:CE - WNx GES - Goldeneye Source - Get GES - GES stats - Profile guess - Files - Steam Group - Youtube Channel -